Time;durP1;ratioP1;P1;durP2;ratioP2;P2;SDS_P1;SDS_P2;PMS_P1;PMS_P2;Temp;Humidity;BMP_temperature;BMP_pressure;BME280_temperature;BME280_humidity;BME280_pressure;Samples;Min_cycle;Max_cycle;Signal;HPM_P1;HPM_P2
2022/04/17 00:00:25;;;;;;;4.53;3.50;;;9.30;76.30;;;;;;5106788;28;20391;-42
2022/04/17 00:02:51;;;;;;;6.28;4.00;;;9.30;76.50;;;;;;5095579;28;20039;-43
2022/04/17 00:05:17;;;;;;;6.10;3.30;;;9.20;76.60;;;;;;5088521;28;20028;-43
2022/04/17 00:07:43;;;;;;;5.10;3.95;;;9.20;76.60;;;;;;5100655;28;20387;-39
2022/04/17 00:10:09;;;;;;;5.35;3.60;;;9.20;76.70;;;;;;5088396;28;20028;-40
2022/04/17 00:12:35;;;;;;;4.75;3.47;;;9.20;76.90;;;;;;5099262;28;20039;-42
2022/04/17 00:15:03;;;;;;;4.15;3.42;;;9.10;77.50;;;;;;5108557;28;20487;-44
2022/04/17 00:17:29;;;;;;;5.35;3.70;;;9.10;77.60;;;;;;5097478;28;20043;-40
2022/04/17 00:19:54;;;;;;;6.03;3.80;;;9.10;77.00;;;;;;5106910;28;20028;-42
2022/04/17 00:22:20;;;;;;;4.90;3.72;;;9.10;77.10;;;;;;5099009;28;20032;-43
2022/04/17 00:24:45;;;;;;;4.63;3.42;;;9.10;77.10;;;;;;5103310;28;20027;-41
2022/04/17 00:27:11;;;;;;;4.68;3.38;;;9.10;77.20;;;;;;5102653;28;20024;-41
2022/04/17 00:29:37;;;;;;;4.80;3.38;;;9.00;77.30;;;;;;5099465;28;20031;-41
2022/04/17 00:32:03;;;;;;;3.83;3.25;;;9.00;77.40;;;;;;5105515;28;20110;-42
2022/04/17 00:34:30;;;;;;;5.03;3.45;;;9.00;77.40;;;;;;5098414;28;20158;-43
2022/04/17 00:37:00;;;;;;;4.13;3.42;;;9.00;77.50;;;;;;5105664;28;20176;-42
2022/04/17 00:39:26;;;;;;;3.90;3.28;;;8.90;77.60;;;;;;5096351;28;20031;-41
2022/04/17 00:41:53;;;;;;;5.93;3.60;;;8.90;77.70;;;;;;5107065;28;20031;-42
2022/04/17 00:44:19;;;;;;;4.20;3.60;;;8.90;77.80;;;;;;5096116;28;20031;-43
2022/04/17 00:46:45;;;;;;;4.22;3.55;;;8.90;77.80;;;;;;5107776;28;20031;-42
2022/04/17 00:49:11;;;;;;;5.03;3.75;;;8.80;77.80;;;;;;5095168;28;20024;-41
2022/04/17 00:51:37;;;;;;;3.85;3.30;;;8.80;78.00;;;;;;5107379;28;20050;-41
2022/04/17 00:54:04;;;;;;;4.47;3.22;;;8.80;78.10;;;;;;5094900;28;20024;-42
2022/04/17 00:56:31;;;;;;;5.38;4.18;;;8.80;78.10;;;;;;5107462;28;20059;-40
2022/04/17 00:58:57;;;;;;;6.35;4.40;;;8.70;78.20;;;;;;5095674;28;20066;-42
2022/04/17 01:01:23;;;;;;;5.03;3.80;;;8.70;78.30;;;;;;5106022;28;20027;-42
2022/04/17 01:03:52;;;;;;;5.05;3.67;;;8.70;78.50;;;;;;5099599;28;20027;-42
2022/04/17 01:06:17;;;;;;;4.40;3.55;;;8.60;78.50;;;;;;5103786;28;20072;-41
2022/04/17 01:08:43;;;;;;;5.43;3.88;;;8.60;78.50;;;;;;5100947;28;20031;-41
2022/04/17 01:11:10;;;;;;;5.20;3.80;;;8.60;78.60;;;;;;5101057;28;20020;-43
2022/04/17 01:13:39;;;;;;;4.90;4.05;;;8.60;78.60;;;;;;5101633;28;20102;-43
2022/04/17 01:16:05;;;;;;;5.50;3.70;;;8.60;78.90;;;;;;5099543;28;20023;-40
2022/04/17 01:19:00;;;;;;;4.63;3.63;;;8.50;78.90;;;;;;5104826;28;20011;-42
2022/04/17 01:21:26;;;;;;;4.97;3.90;;;8.50;78.90;;;;;;5100335;28;20022;-43
2022/04/17 01:26:56;;;;;;;5.18;3.80;;;8.40;79.10;;;;;;5099376;28;20473;-43
2022/04/17 01:29:22;;;;;;;5.22;3.92;;;8.40;79.20;;;;;;5101436;28;20020;-41
2022/04/17 01:31:48;;;;;;;5.53;4.05;;;8.30;79.30;;;;;;5100565;28;20059;-43
2022/04/17 01:34:15;;;;;;;4.68;4.22;;;8.30;79.50;;;;;;5102619;28;20043;-43
2022/04/17 01:36:45;;;;;;;5.72;4.03;;;8.30;79.50;;;;;;5098113;28;20750;-43
2022/04/17 01:39:12;;;;;;;4.80;3.80;;;8.30;79.70;;;;;;5104534;28;20107;-43
2022/04/17 01:41:38;;;;;;;5.55;4.53;;;8.20;79.70;;;;;;5094863;28;20024;-43
2022/04/17 01:44:04;;;;;;;5.28;3.63;;;8.20;79.80;;;;;;5105549;28;20020;-42
2022/04/17 01:46:29;;;;;;;7.32;3.97;;;8.20;79.90;;;;;;5094549;28;20106;-43
2022/04/17 01:48:55;;;;;;;7.40;3.92;;;8.20;80.00;;;;;;5106480;28;20471;-41
2022/04/17 01:51:21;;;;;;;4.40;3.72;;;8.10;80.00;;;;;;5094076;28;20027;-42
2022/04/17 01:53:47;;;;;;;4.60;3.60;;;8.10;80.10;;;;;;5106092;28;20034;-42
2022/04/17 01:56:13;;;;;;;5.47;3.63;;;8.10;80.30;;;;;;5092976;28;20088;-42
2022/04/17 01:58:38;;;;;;;5.57;3.90;;;8.00;80.40;;;;;;5106824;28;20027;-41
2022/04/17 02:01:05;;;;;;;5.93;4.38;;;8.00;80.60;;;;;;5094259;28;20028;-41
2022/04/17 02:03:30;;;;;;;5.93;4.47;;;8.00;80.70;;;;;;5105201;28;20027;-42
2022/04/17 02:05:56;;;;;;;5.78;4.22;;;8.00;80.80;;;;;;5097427;28;20020;-42
2022/04/17 02:08:21;;;;;;;5.38;4.00;;;8.00;80.80;;;;;;5102241;28;20038;-42
2022/04/17 02:10:47;;;;;;;5.20;4.18;;;7.90;80.90;;;;;;5099754;28;20108;-42
2022/04/17 02:13:13;;;;;;;5.80;4.50;;;7.90;81.00;;;;;;5093669;28;20380;-43
2022/04/17 02:15:38;;;;;;;7.40;4.65;;;7.90;81.10;;;;;;5088314;28;20107;-42
2022/04/17 02:18:04;;;;;;;7.10;5.07;;;7.90;81.30;;;;;;5095298;28;20028;-41
2022/04/17 02:20:29;;;;;;;4.60;4.15;;;7.80;81.30;;;;;;5086310;28;20479;-42
2022/04/17 02:22:58;;;;;;;7.60;5.05;;;7.80;81.40;;;;;;5096844;28;20027;-41
2022/04/17 02:25:23;;;;;;;7.10;5.20;;;7.80;81.60;;;;;;5087025;28;20035;-41
2022/04/17 02:27:48;;;;;;;6.80;5.20;;;7.80;81.80;;;;;;5096893;28;20028;-38
2022/04/17 02:30:14;;;;;;;7.57;5.10;;;7.70;81.80;;;;;;5084906;28;20028;-42
2022/04/17 02:32:40;;;;;;;7.50;5.15;;;7.80;82.00;;;;;;5098147;28;20480;-38
2022/04/17 02:35:06;;;;;;;5.90;4.72;;;7.70;81.90;;;;;;5086413;28;20028;-41
2022/04/17 02:37:31;;;;;;;6.43;5.22;;;7.70;82.00;;;;;;5097130;28;20052;-40
2022/04/17 02:39:57;;;;;;;6.80;5.53;;;7.70;82.10;;;;;;5085778;28;20341;-40
2022/04/17 02:42:22;;;;;;;6.28;4.78;;;7.70;82.20;;;;;;5096847;28;20428;-41
2022/04/17 02:44:48;;;;;;;6.47;4.97;;;7.60;82.30;;;;;;5086080;28;20101;-41
2022/04/17 02:49:58;;;;;;;5.13;4.63;;;7.60;82.50;;;;;;5087122;28;20414;-42
2022/04/17 02:52:26;;;;;;;6.53;5.00;;;7.60;82.50;;;;;;5093417;28;20016;-38
2022/04/17 02:54:53;;;;;;;7.85;4.95;;;7.50;82.60;;;;;;5089763;28;20024;-42
2022/04/17 02:57:19;;;;;;;6.82;5.35;;;7.50;82.80;;;;;;5090427;28;20127;-43
2022/04/17 02:59:45;;;;;;;6.75;4.80;;;7.50;82.90;;;;;;5091919;28;20036;-41
2022/04/17 03:07:41;;;;;;;6.78;5.43;;;7.40;83.00;;;;;;5091561;28;20038;-40
2022/04/17 03:10:07;;;;;;;7.95;5.95;;;7.40;83.20;;;;;;5091743;28;20032;-41
2022/04/17 03:12:36;;;;;;;8.18;5.82;;;7.40;83.40;;;;;;5087844;28;20081;-40
2022/04/17 03:15:02;;;;;;;8.38;5.97;;;7.40;83.50;;;;;;5085437;28;20024;-43
2022/04/17 03:17:28;;;;;;;7.05;5.65;;;7.30;83.50;;;;;;5090146;28;20596;-42
2022/04/17 03:19:54;;;;;;;9.23;6.00;;;7.30;83.50;;;;;;5094327;28;20820;-43
2022/04/17 03:22:23;;;;;;;8.50;5.50;;;7.30;83.70;;;;;;5103675;28;20496;-42
2022/04/17 03:24:48;;;;;;;7.13;5.50;;;7.30;83.70;;;;;;5093654;28;20027;-43
2022/04/17 03:27:14;;;;;;;7.30;5.70;;;7.30;83.80;;;;;;5104718;28;20015;-43
2022/04/17 03:29:39;;;;;;;7.25;5.75;;;7.20;83.90;;;;;;5093500;28;20096;-41
2022/04/17 03:32:05;;;;;;;8.68;6.60;;;7.20;84.10;;;;;;5104798;28;20030;-43
2022/04/17 03:34:31;;;;;;;8.02;5.85;;;7.20;84.20;;;;;;5092193;28;20424;-41
2022/04/17 03:36:59;;;;;;;8.57;6.28;;;7.20;84.20;;;;;;5105673;28;20395;-41
2022/04/17 03:39:25;;;;;;;9.27;6.13;;;7.10;84.20;;;;;;5091620;28;20020;-41
2022/04/17 03:41:52;;;;;;;9.18;6.25;;;7.10;84.30;;;;;;5105227;28;20024;-39
2022/04/17 03:44:17;;;;;;;8.88;5.53;;;7.10;84.30;;;;;;5094904;28;20047;-42
2022/04/17 03:46:43;;;;;;;7.28;5.80;;;7.10;84.40;;;;;;5101845;28;20542;-42
2022/04/17 03:49:09;;;;;;;6.22;5.10;;;7.10;84.40;;;;;;5099060;28;20075;-41
2022/04/17 03:51:35;;;;;;;8.20;6.20;;;7.10;84.40;;;;;;5098973;28;20027;-42
2022/04/17 03:54:01;;;;;;;7.97;5.53;;;7.00;84.50;;;;;;5099771;28;20530;-42
2022/04/17 03:56:26;;;;;;;8.65;5.78;;;7.00;84.50;;;;;;5096728;28;20142;-42
2022/04/17 03:58:52;;;;;;;7.15;5.80;;;7.00;84.60;;;;;;5103025;28;20076;-43
2022/04/17 04:01:17;;;;;;;6.82;5.18;;;7.00;84.60;;;;;;5093435;28;20381;-41
2022/04/17 04:03:43;;;;;;;9.82;5.68;;;7.00;84.60;;;;;;5104616;28;20116;-41
2022/04/17 04:06:08;;;;;;;7.90;5.10;;;7.00;84.60;;;;;;5097253;28;20024;-42
2022/04/17 04:08:33;;;;;;;8.75;5.60;;;7.00;84.70;;;;;;5107614;28;20031;-41
2022/04/17 04:10:59;;;;;;;7.75;5.57;;;7.00;84.70;;;;;;5095723;28;20069;-39
2022/04/17 04:13:25;;;;;;;7.68;5.65;;;7.00;84.80;;;;;;5101097;28;20520;-42
2022/04/17 04:15:50;;;;;;;8.05;5.90;;;7.00;84.80;;;;;;5099923;28;20432;-41
2022/04/17 04:18:16;;;;;;;7.85;5.00;;;6.90;84.70;;;;;;5088485;28;20035;-42
2022/04/17 04:20:41;;;;;;;7.43;5.45;;;6.90;84.70;;;;;;5099297;28;20035;-42
2022/04/17 04:23:09;;;;;;;7.55;5.63;;;6.90;84.80;;;;;;5089451;28;20061;-42
2022/04/17 04:25:35;;;;;;;7.38;5.85;;;6.90;84.90;;;;;;5095970;28;20024;-40
2022/04/17 04:30:44;;;;;;;7.93;5.75;;;6.90;85.00;;;;;;5096965;28;20089;-38
2022/04/17 04:33:10;;;;;;;7.47;5.97;;;6.80;85.10;;;;;;5091738;28;20028;-41
2022/04/17 04:35:35;;;;;;;8.10;5.70;;;6.80;85.10;;;;;;5092788;28;20038;-43
2022/04/17 04:38:01;;;;;;;7.10;5.90;;;6.80;85.20;;;;;;5094738;28;20124;-43
2022/04/17 04:40:29;;;;;;;7.68;5.68;;;6.80;85.40;;;;;;5090634;28;20020;-42
2022/04/17 04:42:58;;;;;;;8.07;6.15;;;6.80;85.40;;;;;;5095872;28;20070;-41
2022/04/17 04:48:09;;;;;;;8.27;5.57;;;6.70;85.40;;;;;;5096555;28;20051;-44
2022/04/17 04:50:34;;;;;;;6.65;5.15;;;6.70;85.50;;;;;;5088118;28;20024;-42
2022/04/17 04:53:00;;;;;;;6.85;5.45;;;6.70;85.60;;;;;;5098044;28;20055;-42
2022/04/17 04:55:25;;;;;;;7.65;6.20;;;6.70;85.60;;;;;;5088350;28;20040;-40
2022/04/17 04:57:51;;;;;;;7.28;5.68;;;6.70;85.70;;;;;;5098063;28;20131;-44
2022/04/17 05:00:16;;;;;;;7.30;5.45;;;6.70;85.70;;;;;;5087402;28;20020;-40
2022/04/17 05:02:42;;;;;;;6.72;5.35;;;6.70;85.70;;;;;;5093792;28;20466;-42
2022/04/17 05:05:08;;;;;;;6.20;5.50;;;6.60;85.70;;;;;;5107020;28;20030;-43
2022/04/17 05:07:34;;;;;;;6.88;5.30;;;6.60;85.80;;;;;;5094084;28;20027;-42
2022/04/17 05:10:00;;;;;;;6.47;4.75;;;6.60;85.90;;;;;;5108062;28;20040;-41
2022/04/17 05:12:27;;;;;;;5.97;5.13;;;6.60;85.90;;;;;;5094825;28;20043;-41
2022/04/17 05:14:53;;;;;;;8.88;5.40;;;6.60;86.60;;;;;;5088210;28;20028;-43
2022/04/17 05:17:19;;;;;;;7.15;6.03;;;6.60;86.00;;;;;;5094986;28;20035;-41
2022/04/17 05:19:45;;;;;;;6.80;5.03;;;6.60;86.20;;;;;;5090431;28;20058;-41
2022/04/17 05:22:15;;;;;;;7.50;5.68;;;6.60;86.30;;;;;;5093915;28;20359;-42
2022/04/17 05:24:42;;;;;;;6.95;5.40;;;6.70;86.30;;;;;;5091737;28;20170;-43
2022/04/17 05:27:07;;;;;;;8.43;5.55;;;6.70;86.40;;;;;;5091707;28;20109;-42
2022/04/17 05:29:33;;;;;;;8.13;5.97;;;6.70;86.40;;;;;;5094145;28;20036;-41
2022/04/17 05:32:00;;;;;;;5.80;4.78;;;6.70;86.40;;;;;;5088098;28;20032;-40
2022/04/17 05:34:26;;;;;;;7.20;5.50;;;6.70;86.50;;;;;;5097476;28;20032;-42
2022/04/17 05:36:54;;;;;;;8.13;5.78;;;6.80;86.70;;;;;;5088463;28;20394;-42
2022/04/17 05:39:20;;;;;;;8.25;6.18;;;6.80;86.70;;;;;;5097311;28;20024;-40
2022/04/17 05:41:46;;;;;;;8.25;5.80;;;6.80;86.80;;;;;;5087772;28;20379;-42
2022/04/17 05:44:12;;;;;;;7.28;5.78;;;6.90;86.80;;;;;;5098185;28;20062;-41
2022/04/17 05:46:40;;;;;;;8.23;6.18;;;6.90;86.70;;;;;;5086201;28;20038;-42
2022/04/17 05:49:07;;;;;;;11.02;6.72;;;7.00;86.80;;;;;;5099243;28;20051;-42
2022/04/17 05:51:33;;;;;;;9.00;6.38;;;7.00;86.80;;;;;;5086074;28;20792;-43
2022/04/17 05:54:00;;;;;;;9.50;6.35;;;7.10;86.80;;;;;;5098671;28;20027;-42
2022/04/17 05:56:26;;;;;;;8.73;6.50;;;7.10;86.80;;;;;;5085736;28;20075;-41
2022/04/17 05:58:52;;;;;;;7.47;5.97;;;7.10;86.70;;;;;;5096651;28;20132;-41
2022/04/17 06:01:17;;;;;;;7.60;6.60;;;7.10;86.80;;;;;;5088015;28;20036;-40
2022/04/17 06:03:43;;;;;;;8.35;6.40;;;7.20;86.80;;;;;;5093585;28;20135;-43
2022/04/17 06:06:09;;;;;;;7.70;6.03;;;7.20;86.80;;;;;;5090751;28;20119;-42
2022/04/17 06:08:34;;;;;;;10.70;6.40;;;7.20;86.80;;;;;;5090465;28;20023;-41
2022/04/17 06:11:01;;;;;;;6.85;5.80;;;7.30;87.40;;;;;;5094461;28;20031;-44
2022/04/17 06:13:26;;;;;;;8.88;6.35;;;7.30;86.90;;;;;;5087916;28;20155;-41
2022/04/17 06:15:52;;;;;;;7.75;5.90;;;7.40;87.00;;;;;;5096060;28;20406;-42
2022/04/17 06:18:17;;;;;;;9.57;6.63;;;7.40;87.10;;;;;;5087095;28;20027;-42
2022/04/17 06:20:43;;;;;;;11.23;6.40;;;7.40;87.10;;;;;;5096541;28;20016;-40
2022/04/17 06:23:08;;;;;;;9.32;7.07;;;7.50;87.20;;;;;;5087198;28;20016;-41
2022/04/17 06:25:34;;;;;;;8.65;6.45;;;7.50;87.20;;;;;;5096657;28;20403;-42
2022/04/17 06:27:59;;;;;;;10.02;6.80;;;7.50;87.40;;;;;;5084678;28;20070;-42
2022/04/17 06:30:25;;;;;;;9.00;6.13;;;7.60;87.50;;;;;;5097886;28;20034;-41
2022/04/17 06:32:51;;;;;;;8.88;6.80;;;7.60;87.60;;;;;;5086077;28;20103;-41
2022/04/17 06:35:17;;;;;;;7.82;6.10;;;7.70;87.60;;;;;;5097081;28;20114;-42
2022/04/17 06:37:48;;;;;;;9.20;6.60;;;7.70;87.50;;;;;;5085736;28;20429;-42
2022/04/17 06:40:16;;;;;;;8.45;6.57;;;7.80;87.40;;;;;;5095341;28;20566;-43
2022/04/17 06:42:42;;;;;;;8.50;6.65;;;7.80;87.30;;;;;;5086528;28;20046;-42
2022/04/17 06:45:08;;;;;;;9.70;6.43;;;7.80;87.40;;;;;;5091280;28;20023;-42
2022/04/17 06:47:33;;;;;;;8.55;6.32;;;7.90;87.30;;;;;;5088239;28;20475;-41
2022/04/17 06:49:59;;;;;;;8.30;6.28;;;7.90;87.20;;;;;;5089163;28;20031;-42
2022/04/17 06:52:24;;;;;;;7.68;6.38;;;8.00;87.20;;;;;;5091731;28;20023;-39
2022/04/17 06:54:53;;;;;;;8.07;5.50;;;8.00;87.20;;;;;;5087383;28;20028;-40
2022/04/17 06:57:18;;;;;;;7.47;5.47;;;8.10;87.30;;;;;;5093015;28;20044;-43
2022/04/17 06:59:44;;;;;;;7.63;6.18;;;8.10;87.30;;;;;;5085331;28;20035;-38
2022/04/17 07:02:09;;;;;;;7.65;6.22;;;8.10;87.50;;;;;;5096073;28;20510;-42
2022/04/17 07:04:35;;;;;;;7.45;5.35;;;8.20;87.30;;;;;;5084504;28;20059;-40
2022/04/17 07:07:01;;;;;;;7.93;6.10;;;8.20;87.30;;;;;;5095996;28;20102;-41
2022/04/17 07:09:26;;;;;;;6.15;5.10;;;8.20;87.30;;;;;;5084245;28;20484;-42
2022/04/17 07:11:55;;;;;;;6.68;5.43;;;8.30;87.40;;;;;;5096364;28;20031;-41
2022/04/17 07:14:21;;;;;;;6.93;5.47;;;8.30;87.50;;;;;;5096725;28;20034;-39
2022/04/17 07:16:47;;;;;;;7.82;5.78;;;8.40;87.50;;;;;;5085769;28;20024;-41
2022/04/17 07:19:15;;;;;;;5.25;4.57;;;8.40;87.40;;;;;;5086286;28;20058;-42
2022/04/17 07:21:41;;;;;;;7.05;5.15;;;8.50;87.50;;;;;;5088445;28;20441;-40
2022/04/17 07:24:06;;;;;;;6.95;5.18;;;8.50;87.40;;;;;;5085542;28;20078;-40
2022/04/17 07:26:32;;;;;;;8.57;5.35;;;8.60;87.40;;;;;;5091779;28;20028;-42
2022/04/17 07:28:57;;;;;;;5.85;5.10;;;8.60;87.40;;;;;;5089478;28;20016;-41
2022/04/17 07:31:23;;;;;;;6.10;4.75;;;8.70;87.40;;;;;;5088547;28;20495;-42
2022/04/17 07:33:48;;;;;;;5.25;4.00;;;8.70;87.40;;;;;;5091671;28;20024;-41
2022/04/17 07:36:14;;;;;;;6.90;4.78;;;8.80;87.50;;;;;;5087300;28;20052;-41
2022/04/17 07:38:40;;;;;;;5.65;4.78;;;8.80;87.50;;;;;;5095408;28;20051;-43
2022/04/17 07:41:05;;;;;;;6.97;5.20;;;8.90;87.40;;;;;;5090580;28;20074;-41
2022/04/17 07:43:32;;;;;;;7.38;4.85;;;8.90;87.30;;;;;;5099517;28;20024;-41
2022/04/17 07:45:58;;;;;;;4.50;4.10;;;9.00;87.30;;;;;;5089856;28;20036;-40
2022/04/17 07:48:24;;;;;;;5.40;4.90;;;9.10;87.40;;;;;;5099534;28;20020;-42
2022/04/17 07:50:52;;;;;;;5.00;4.25;;;9.10;87.20;;;;;;5086263;28;20111;-40
2022/04/17 07:53:18;;;;;;;5.97;4.07;;;9.20;87.20;;;;;;5092874;28;20024;-41
2022/04/17 07:55:43;;;;;;;5.05;3.88;;;9.20;87.10;;;;;;5087264;28;20785;-42
2022/04/17 07:58:31;;;;;;;6.35;4.03;;;9.30;87.10;;;;;;5092929;28;20036;-42
2022/04/17 08:01:03;;;;;;;4.28;3.40;;;9.40;87.10;;;;;;5094158;28;20143;-41
2022/04/17 08:06:07;;;;;;;3.65;3.20;;;9.50;86.90;;;;;;5098407;28;20032;-42
2022/04/17 08:08:33;;;;;;;5.38;3.70;;;9.60;86.90;;;;;;5094688;28;20039;-43
2022/04/17 08:10:59;;;;;;;5.25;3.72;;;9.60;86.90;;;;;;5089429;28;20036;-41
2022/04/17 08:13:24;;;;;;;4.18;3.38;;;9.70;86.90;;;;;;5092339;28;20379;-40
2022/04/17 08:15:50;;;;;;;4.90;3.42;;;9.80;86.70;;;;;;5087483;28;20035;-42
2022/04/17 08:18:16;;;;;;;5.00;3.50;;;9.90;86.60;;;;;;5095019;28;20031;-40
2022/04/17 08:20:41;;;;;;;4.28;3.60;;;10.00;86.60;;;;;;5090910;28;20481;-40
2022/04/17 08:23:07;;;;;;;3.97;3.03;;;10.00;86.40;;;;;;5093237;28;20049;-41
2022/04/17 08:25:35;;;;;;;3.80;3.00;;;10.10;86.40;;;;;;5094677;28;20460;-42
2022/04/17 08:28:02;;;;;;;5.40;3.83;;;10.10;86.40;;;;;;5090310;28;20111;-41
2022/04/17 08:30:32;;;;;;;5.60;3.75;;;10.20;86.40;;;;;;5101231;28;20123;-40
2022/04/17 08:32:59;;;;;;;3.97;3.60;;;10.20;86.20;;;;;;5105008;28;20016;-39
2022/04/17 08:35:25;;;;;;;4.40;4.00;;;10.30;86.20;;;;;;5098246;28;20081;-40
2022/04/17 08:37:52;;;;;;;4.65;3.20;;;10.30;86.20;;;;;;5089371;28;20032;-38
2022/04/17 08:40:17;;;;;;;4.35;3.40;;;10.40;86.30;;;;;;5099080;28;20032;-41
2022/04/17 08:42:44;;;;;;;5.22;3.65;;;10.40;86.40;;;;;;5087336;28;20082;-41
2022/04/17 08:45:11;;;;;;;4.28;3.25;;;10.50;86.30;;;;;;5099540;28;20062;-44
2022/04/17 08:47:41;;;;;;;3.90;3.50;;;10.60;86.30;;;;;;5086914;28;20433;-41
2022/04/17 08:50:08;;;;;;;4.30;3.90;;;10.60;86.30;;;;;;5091297;28;20028;-42
2022/04/17 08:52:34;;;;;;;5.32;3.35;;;10.70;86.40;;;;;;5099100;28;20032;-41
2022/04/17 08:55:00;;;;;;;4.25;3.72;;;10.70;86.50;;;;;;5090369;28;20050;-44
2022/04/17 08:57:26;;;;;;;4.15;3.45;;;10.80;86.50;;;;;;5053940;28;20084;-39
2022/04/17 08:59:52;;;;;;;5.82;4.03;;;10.80;86.60;;;;;;5071729;28;20016;-39
2022/04/17 09:02:18;;;;;;;4.53;4.07;;;10.90;86.70;;;;;;5075889;28;20111;-39
2022/04/17 09:04:46;;;;;;;6.00;4.32;;;11.00;86.80;;;;;;5064452;28;20025;-43
2022/04/17 09:07:12;;;;;;;5.25;4.47;;;11.00;86.50;;;;;;5081404;28;20140;-39
2022/04/17 09:09:51;;;;;;;6.50;4.35;;;11.10;86.30;;;;;;5080574;28;20070;-41
2022/04/17 09:12:22;;;;;;;6.30;4.53;;;11.20;86.40;;;;;;5081963;28;20043;-39
2022/04/17 09:14:48;;;;;;;5.82;4.00;;;11.20;86.30;;;;;;5081753;28;20032;-40
2022/04/17 09:17:13;;;;;;;5.70;4.47;;;11.30;86.20;;;;;;5064656;28;20044;-43
2022/04/17 09:19:39;;;;;;;4.18;3.70;;;11.40;86.30;;;;;;5063850;28;20023;-41
2022/04/17 09:22:06;;;;;;;3.78;3.13;;;11.40;86.20;;;;;;5070191;28;20036;-42
2022/04/17 09:24:35;;;;;;;3.83;3.33;;;11.50;86.10;;;;;;5049620;28;20717;-43
2022/04/17 09:27:01;;;;;;;3.97;2.92;;;11.60;86.10;;;;;;5078396;28;20095;-41
2022/04/17 09:29:29;;;;;;;2.83;2.53;;;11.60;85.80;;;;;;5066483;28;20479;-39
2022/04/17 09:32:12;;;;;;;3.28;2.53;;;11.70;85.70;;;;;;5074743;28;20024;-42
2022/04/17 09:34:49;;;;;;;4.55;2.55;;;11.70;85.30;;;;;;5062340;28;20020;-39
2022/04/17 09:37:17;;;;;;;3.05;2.72;;;11.80;85.00;;;;;;5064675;28;20040;-40
2022/04/17 09:39:43;;;;;;;3.05;2.20;;;11.90;84.90;;;;;;5083245;28;20027;-41
2022/04/17 09:42:09;;;;;;;3.47;2.25;;;11.90;84.80;;;;;;5074867;28;20016;-41
2022/04/17 09:44:35;;;;;;;4.18;2.55;;;12.00;84.50;;;;;;5086135;28;20043;-41
2022/04/17 09:47:02;;;;;;;2.55;2.35;;;12.10;84.30;;;;;;5073701;28;20044;-41
2022/04/17 09:49:27;;;;;;;4.80;2.38;;;12.20;84.00;;;;;;5085761;28;20016;-41
2022/04/17 09:52:08;;;;;;;3.35;2.60;;;12.20;83.80;;;;;;5073270;28;20055;-42
2022/04/17 09:54:33;;;;;;;3.10;2.22;;;12.30;83.90;;;;;;5051982;28;20023;-40
2022/04/17 09:56:59;;;;;;;3.13;2.33;;;12.40;83.80;;;;;;5094340;28;20051;-42
2022/04/17 09:59:24;;;;;;;4.05;2.00;;;12.40;83.60;;;;;;5086493;28;20020;-42
2022/04/17 10:01:52;;;;;;;2.53;2.03;;;12.50;83.50;;;;;;5094217;28;20035;-40
2022/04/17 10:04:21;;;;;;;2.70;2.20;;;12.50;83.50;;;;;;5089305;28;20066;-42
2022/04/17 10:06:49;;;;;;;5.63;2.80;;;12.60;83.50;;;;;;5092780;28;20029;-41
2022/04/17 10:09:15;;;;;;;3.20;2.70;;;12.70;83.30;;;;;;5090847;28;20032;-42
2022/04/17 10:11:41;;;;;;;3.28;2.83;;;12.70;83.20;;;;;;5090924;28;20115;-41
2022/04/17 10:14:07;;;;;;;4.38;2.83;;;12.70;82.70;;;;;;5100878;28;20020;-42
2022/04/17 10:16:34;;;;;;;4.22;2.72;;;12.80;82.50;;;;;;5103339;28;20114;-43
2022/04/17 10:19:10;;;;;;;3.35;2.83;;;12.80;82.50;;;;;;5097005;28;20016;-43
2022/04/17 10:21:36;;;;;;;3.83;2.80;;;12.90;82.50;;;;;;5103288;28;20043;-42
2022/04/17 10:24:04;;;;;;;3.45;2.63;;;12.90;82.40;;;;;;5083573;28;20019;-41
2022/04/17 10:26:32;;;;;;;3.35;2.50;;;13.00;82.00;;;;;;5104417;28;20019;-41
2022/04/17 10:29:00;;;;;;;2.85;2.33;;;13.10;81.90;;;;;;5094852;28;20360;-42
2022/04/17 10:31:48;;;;;;;3.60;2.67;;;13.10;81.60;;;;;;5104717;28;20552;-41
2022/04/17 10:34:41;;;;;;;4.07;2.58;;;13.20;82.00;;;;;;5094565;28;20534;-43
2022/04/17 10:37:21;;;;;;;2.93;2.60;;;13.30;81.20;;;;;;5087255;28;20032;-41
2022/04/17 10:39:50;;;;;;;3.60;2.17;;;13.30;81.00;;;;;;5087788;28;20077;-42
2022/04/17 10:42:16;;;;;;;3.13;2.35;;;13.40;81.10;;;;;;5104049;28;20065;-43
2022/04/17 10:44:41;;;;;;;2.58;2.30;;;13.40;80.80;;;;;;5094577;28;20019;-40
2022/04/17 10:47:20;;;;;;;4.85;2.20;;;13.40;80.10;;;;;;5104535;28;20758;-42
2022/04/17 10:49:53;;;;;;;2.72;2.15;;;13.50;79.80;;;;;;5093766;28;20020;-43
2022/04/17 10:52:31;;;;;;;2.53;2.33;;;13.50;79.60;;;;;;5104374;28;20051;-43
2022/04/17 10:55:10;;;;;;;2.33;1.80;;;13.60;79.60;;;;;;5093636;28;20022;-40
2022/04/17 10:57:46;;;;;;;3.08;2.10;;;13.70;79.40;;;;;;5104314;28;20074;-42
2022/04/17 11:00:27;;;;;;;2.80;2.05;;;13.70;78.80;;;;;;5093924;28;20443;-42
2022/04/17 11:02:53;;;;;;;2.42;2.20;;;13.80;78.30;;;;;;5103743;28;20032;-41
2022/04/17 11:08:24;;;;;;;3.47;2.35;;;13.90;77.80;;;;;;5102169;28;20398;-43
2022/04/17 11:10:54;;;;;;;3.47;2.53;;;14.00;76.80;;;;;;5095821;28;20036;-42
2022/04/17 11:13:21;;;;;;;2.95;2.40;;;14.00;75.90;;;;;;5105454;28;20026;-41
2022/04/17 11:15:55;;;;;;;2.45;2.25;;;14.10;75.70;;;;;;5109822;28;20059;-40
2022/04/17 11:18:28;;;;;;;4.78;2.30;;;14.20;75.80;;;;;;5102502;28;20036;-43
2022/04/17 11:20:55;;;;;;;2.47;1.80;;;14.30;75.60;;;;;;5101199;28;20080;-42
2022/04/17 11:24:00;;;;;;;2.40;2.15;;;14.30;75.80;;;;;;5106547;28;20699;-42
2022/04/17 11:26:53;;;;;;;2.70;2.35;;;14.40;75.80;;;;;;4978325;28;20030;-43
2022/04/17 11:29:47;;;;;;;3.63;2.78;;;14.40;75.60;;;;;;4981911;28;20034;-43
2022/04/17 11:32:18;;;;;;;3.72;2.53;;;14.50;75.10;;;;;;5086809;28;20403;-42
2022/04/17 11:34:52;;;;;;;2.60;2.40;;;14.60;74.10;;;;;;5101051;28;20058;-40
2022/04/17 11:37:25;;;;;;;2.30;2.10;;;14.70;74.40;;;;;;5104864;28;20035;-42
2022/04/17 11:39:53;;;;;;;2.58;2.25;;;14.70;74.80;;;;;;5102416;28;20028;-43
2022/04/17 11:42:18;;;;;;;2.55;2.00;;;14.80;74.30;;;;;;5104098;28;20035;-42
2022/04/17 11:44:48;;;;;;;3.67;2.50;;;14.80;74.40;;;;;;5103377;28;20032;-43
2022/04/17 11:47:19;;;;;;;2.35;2.08;;;14.90;74.40;;;;;;5100863;28;20089;-43
2022/04/17 11:49:46;;;;;;;2.85;2.65;;;14.90;74.10;;;;;;5105431;28;20027;-42
2022/04/17 11:52:18;;;;;;;2.30;2.10;;;15.00;73.60;;;;;;5099512;28;20076;-44
2022/04/17 11:54:45;;;;;;;2.80;2.05;;;15.00;73.80;;;;;;5107089;28;20023;-42
2022/04/17 11:57:11;;;;;;;2.85;2.42;;;15.00;73.70;;;;;;5097693;28;20087;-44
2022/04/17 11:59:48;;;;;;;2.67;2.15;;;15.10;72.70;;;;;;5106504;28;20016;-42
2022/04/17 12:02:16;;;;;;;4.32;2.15;;;15.10;72.50;;;;;;5097476;28;20051;-42
2022/04/17 12:04:52;;;;;;;3.47;2.08;;;15.10;72.10;;;;;;5107316;28;20028;-43
2022/04/17 12:07:22;;;;;;;4.30;2.42;;;15.20;72.00;;;;;;5096953;28;20028;-44
2022/04/17 12:09:48;;;;;;;3.22;2.53;;;15.20;72.20;;;;;;5107000;28;20467;-43
2022/04/17 12:12:16;;;;;;;3.30;2.17;;;15.30;72.40;;;;;;5096521;28;20101;-42
2022/04/17 12:14:42;;;;;;;2.83;1.92;;;15.30;71.80;;;;;;5097754;28;20061;-42
2022/04/17 12:17:08;;;;;;;3.72;2.47;;;15.30;71.40;;;;;;5100768;28;20089;-43
2022/04/17 12:19:34;;;;;;;4.47;2.42;;;15.40;70.70;;;;;;5087418;28;20012;-40
2022/04/17 12:22:13;;;;;;;3.13;2.25;;;15.50;70.60;;;;;;5101704;28;20482;-43
2022/04/17 12:24:43;;;;;;;2.67;2.20;;;15.50;71.00;;;;;;5086914;28;20036;-43
2022/04/17 12:27:10;;;;;;;2.28;2.08;;;15.50;71.20;;;;;;5098956;28;20592;-41
2022/04/17 12:29:38;;;;;;;2.35;2.00;;;15.50;71.40;;;;;;5088158;28;20021;-43
2022/04/17 12:32:16;;;;;;;2.95;2.13;;;15.60;71.50;;;;;;5099381;28;20027;-41
2022/04/17 12:34:45;;;;;;;3.50;2.00;;;15.60;71.40;;;;;;5083684;28;20020;-42
2022/04/17 12:37:21;;;;;;;3.53;2.55;;;15.70;71.50;;;;;;5098323;28;20034;-43
2022/04/17 12:39:47;;;;;;;4.03;2.50;;;15.80;71.60;;;;;;5088780;28;20052;-42
2022/04/17 12:42:17;;;;;;;4.75;2.22;;;15.80;71.40;;;;;;5096360;28;20616;-40
2022/04/17 12:44:44;;;;;;;3.30;2.35;;;15.90;71.60;;;;;;5090532;28;20024;-42
2022/04/17 12:47:11;;;;;;;3.33;2.40;;;15.90;71.40;;;;;;5095246;28;20020;-41
2022/04/17 12:49:37;;;;;;;2.22;2.03;;;16.00;71.60;;;;;;5091759;28;20020;-42
2022/04/17 12:52:03;;;;;;;3.38;2.70;;;16.00;71.60;;;;;;5093264;28;20023;-42
2022/04/17 12:54:36;;;;;;;2.92;1.95;;;16.10;71.70;;;;;;5094129;28;20654;-43
2022/04/17 12:57:03;;;;;;;3.25;2.60;;;16.10;71.80;;;;;;5090639;28;20055;-43
2022/04/17 12:59:39;;;;;;;3.40;2.17;;;16.10;71.80;;;;;;5096130;28;20111;-42
2022/04/17 13:02:13;;;;;;;2.63;2.38;;;16.10;72.00;;;;;;5089436;28;20024;-41
2022/04/17 13:04:45;;;;;;;2.42;2.22;;;16.20;72.00;;;;;;5096904;28;20054;-44
2022/04/17 13:07:15;;;;;;;2.90;2.40;;;16.30;71.80;;;;;;5089575;28;20414;-43
2022/04/17 13:09:58;;;;;;;2.97;2.38;;;16.30;72.00;;;;;;5096673;28;20028;-42
2022/04/17 13:12:44;;;;;;;2.05;1.85;;;16.40;72.20;;;;;;5089153;28;20032;-42
2022/04/17 13:15:11;;;;;;;2.50;2.30;;;16.40;72.20;;;;;;5107299;28;20031;-41
2022/04/17 13:17:47;;;;;;;2.83;2.30;;;16.50;72.10;;;;;;5103117;28;20461;-43